Glen Rock, PA

12:49 AM EDT on November 01, 2014 (GMT -0400)
Capital City | Change Station
CLOSE
Current Station
Airport
Location: Harrisburg,
Elevation: 344 ft
Nearby Weather Stations

Elev 344 ft 40.22 °N, 76.86 °W | Updated 53 minutes ago

Overcast
Overcast
46 °F
Feels Like 45 °F
N
4
Wind Variable Wind from SW

Today
High -- | Low -- °F
--% Chance of Precip.
Yesterday
High -- | Low -- °F
Precip. -- in
7:35 AM 6:04 PM
Waxing Gibbous, 62% visible
Pressure 29.88 in
Visibility 10.0 miles
Clouds Overcast 6000 ft
Windchill 45 °F
Dew Point 38 °F
Humidity 73%
Rainfall 0.00 in
Snow Depth Not available.
UV 0 out of 12
Pollen .10 out of 12
Air Quality Not available.
Flu Activity Not available.
METAR KCXY 010356Z AUTO 23003KT 10SM OVC060 08/03 A2987 RMK AO2 SLP117 T00780033

More Conditions Fewer Conditions

Pressure 29.88 in
Visibility 10.0 miles
Clouds Overcast 6000 ft
Windchill 45 °F
Dew Point 38 °F
Humidity 73%
Rainfall 0.00 in
Snow Depth Not available.
UV 0 out of 12
Pollen .10 out of 12
Air Quality Not available.
Flu Activity Not available.
METAR KCXY 010356Z AUTO 23003KT 10SM OVC060 08/03 A2987 RMK AO2 SLP117 T00780033

More Conditions Fewer Conditions

Nowcast | as of 11:14 PM EDT on October 31, 2014

Patchy light rain will overspread the Susquehanna valley from west to east late. The patches of rain are moving north at 30 mph.

×

10-Day Weather Forecast

Almanac

Astronomy

Nov. 01, 2014 Rise Set
Actual Time
Civil Twilight
Nautical Twilight
Astronomical Twilight
Moon
Length of Visible Light
Length of Day
Tomorrow will be .
, % of the Moon is Illuminated

Today's Extremes

State Highs State Lows

Community

WunderPhotos

Upload Photos

1,766,854 photos uploaded!

WunderBlogs® & News

Nearby

Air Quality

  Air Quality AQ Index Pollutant
Not available.

Snow Depth

Station Depth Elevation

Earthquake Activity

City Distance Mag. Time & Date
Minimum magnitude displayed is 2.5.

Coastal Water Temperatures

Place Temperature

Nearby Weather Stations